sensor_id;sensor_type;location;lat;lon;timestamp;pressure;altitude;pressure_sealevel;temperature
28803;BMP280;15949;55.656;37.422;2023-04-24T00:01:04;99482.69;;;8.34
28803;BMP280;15949;55.656;37.422;2023-04-24T00:06:12;99485.28;;;8.34
28803;BMP280;15949;55.656;37.422;2023-04-24T00:11:18;99492.63;;;8.32
28803;BMP280;15949;55.656;37.422;2023-04-24T00:16:24;99483.94;;;8.28
28803;BMP280;15949;55.656;37.422;2023-04-24T00:21:30;99489.31;;;8.23
28803;BMP280;15949;55.656;37.422;2023-04-24T00:26:37;99486.84;;;8.18
28803;BMP280;15949;55.656;37.422;2023-04-24T00:31:43;99481.69;;;8.10
28803;BMP280;15949;55.656;37.422;2023-04-24T00:36:48;99484.78;;;8.03
28803;BMP280;15949;55.656;37.422;2023-04-24T00:41:57;99488.78;;;7.92
28803;BMP280;15949;55.656;37.422;2023-04-24T00:47:03;99485.59;;;7.86
28803;BMP280;15949;55.656;37.422;2023-04-24T00:52:09;99484.97;;;7.89
28803;BMP280;15949;55.656;37.422;2023-04-24T00:57:14;99487.88;;;7.88
28803;BMP280;15949;55.656;37.422;2023-04-24T01:02:22;99490.63;;;7.83
28803;BMP280;15949;55.656;37.422;2023-04-24T01:07:28;99493.53;;;7.81
28803;BMP280;15949;55.656;37.422;2023-04-24T01:12:34;99486.06;;;7.80
28803;BMP280;15949;55.656;37.422;2023-04-24T01:17:40;99483.75;;;7.78
28803;BMP280;15949;55.656;37.422;2023-04-24T01:22:45;99479.50;;;7.74
28803;BMP280;15949;55.656;37.422;2023-04-24T01:27:51;99477.38;;;7.76
28803;BMP280;15949;55.656;37.422;2023-04-24T01:32:58;99472.19;;;7.76
28803;BMP280;15949;55.656;37.422;2023-04-24T01:38:04;99468.97;;;7.70
28803;BMP280;15949;55.656;37.422;2023-04-24T01:43:11;99467.44;;;7.61
28803;BMP280;15949;55.656;37.422;2023-04-24T01:48:17;99469.31;;;7.43
28803;BMP280;15949;55.656;37.422;2023-04-24T01:53:23;99470.84;;;7.36
28803;BMP280;15949;55.656;37.422;2023-04-24T01:58:29;99469.78;;;7.28
28803;BMP280;15949;55.656;37.422;2023-04-24T02:03:34;99472.22;;;7.24
28803;BMP280;15949;55.656;37.422;2023-04-24T02:08:40;99474.03;;;7.24
28803;BMP280;15949;55.656;37.422;2023-04-24T02:13:45;99476.03;;;7.18
28803;BMP280;15949;55.656;37.422;2023-04-24T02:18:51;99476.34;;;7.17
28803;BMP280;15949;55.656;37.422;2023-04-24T02:23:57;99471.44;;;7.15
28803;BMP280;15949;55.656;37.422;2023-04-24T02:29:03;99471.00;;;7.13
28803;BMP280;15949;55.656;37.422;2023-04-24T02:34:09;99474.63;;;7.12
28803;BMP280;15949;55.656;37.422;2023-04-24T02:39:14;99478.00;;;7.13
28803;BMP280;15949;55.656;37.422;2023-04-24T02:44:21;99476.47;;;7.12
28803;BMP280;15949;55.656;37.422;2023-04-24T02:49:27;99482.41;;;7.12
28803;BMP280;15949;55.656;37.422;2023-04-24T02:54:33;99490.34;;;7.16
28803;BMP280;15949;55.656;37.422;2023-04-24T02:59:38;99493.56;;;7.21
28803;BMP280;15949;55.656;37.422;2023-04-24T03:04:44;99495.53;;;7.24
28803;BMP280;15949;55.656;37.422;2023-04-24T03:09:50;99500.72;;;7.33
28803;BMP280;15949;55.656;37.422;2023-04-24T03:14:55;99497.53;;;7.45
28803;BMP280;15949;55.656;37.422;2023-04-24T03:20:01;99499.81;;;7.55
28803;BMP280;15949;55.656;37.422;2023-04-24T03:25:07;99502.56;;;7.67
28803;BMP280;15949;55.656;37.422;2023-04-24T03:30:14;99503.75;;;7.78
28803;BMP280;15949;55.656;37.422;2023-04-24T03:35:20;99508.63;;;7.88
28803;BMP280;15949;55.656;37.422;2023-04-24T03:40:27;99507.66;;;8.01
28803;BMP280;15949;55.656;37.422;2023-04-24T03:45:34;99511.00;;;8.19
28803;BMP280;15949;55.656;37.422;2023-04-24T03:50:40;99514.16;;;8.33
28803;BMP280;15949;55.656;37.422;2023-04-24T03:55:46;99514.41;;;8.48
28803;BMP280;15949;55.656;37.422;2023-04-24T04:00:51;99509.78;;;8.63
28803;BMP280;15949;55.656;37.422;2023-04-24T04:05:57;99519.00;;;8.81
28803;BMP280;15949;55.656;37.422;2023-04-24T04:11:03;99522.56;;;8.97
28803;BMP280;15949;55.656;37.422;2023-04-24T04:16:08;99521.69;;;9.14
28803;BMP280;15949;55.656;37.422;2023-04-24T04:21:14;99522.75;;;9.33
28803;BMP280;15949;55.656;37.422;2023-04-24T04:26:19;99529.16;;;9.56
28803;BMP280;15949;55.656;37.422;2023-04-24T04:31:26;99521.94;;;9.74
28803;BMP280;15949;55.656;37.422;2023-04-24T04:36:32;99526.47;;;9.98
28803;BMP280;15949;55.656;37.422;2023-04-24T04:41:42;99525.28;;;10.19
28803;BMP280;15949;55.656;37.422;2023-04-24T04:46:47;99532.59;;;10.38
28803;BMP280;15949;55.656;37.422;2023-04-24T04:51:53;99537.22;;;10.57
28803;BMP280;15949;55.656;37.422;2023-04-24T04:56:59;99542.66;;;10.76
28803;BMP280;15949;55.656;37.422;2023-04-24T05:02:05;99537.28;;;10.97
28803;BMP280;15949;55.656;37.422;2023-04-24T05:07:11;99536.28;;;11.13
28803;BMP280;15949;55.656;37.422;2023-04-24T05:12:16;99536.94;;;11.38
28803;BMP280;15949;55.656;37.422;2023-04-24T05:17:22;99543.91;;;11.62
28803;BMP280;15949;55.656;37.422;2023-04-24T05:22:27;99549.91;;;11.78
28803;BMP280;15949;55.656;37.422;2023-04-24T05:27:33;99548.59;;;11.99
28803;BMP280;15949;55.656;37.422;2023-04-24T05:32:38;99546.25;;;12.26
28803;BMP280;15949;55.656;37.422;2023-04-24T05:37:44;99543.06;;;12.51
28803;BMP280;15949;55.656;37.422;2023-04-24T05:42:50;99545.53;;;12.79
28803;BMP280;15949;55.656;37.422;2023-04-24T05:47:55;99541.81;;;12.99
28803;BMP280;15949;55.656;37.422;2023-04-24T05:53:01;99537.41;;;13.22
28803;BMP280;15949;55.656;37.422;2023-04-24T05:58:07;99530.47;;;13.53
28803;BMP280;15949;55.656;37.422;2023-04-24T06:03:13;99541.31;;;13.74
28803;BMP280;15949;55.656;37.422;2023-04-24T06:08:19;99535.31;;;13.96
28803;BMP280;15949;55.656;37.422;2023-04-24T06:13:25;99535.34;;;14.26
28803;BMP280;15949;55.656;37.422;2023-04-24T06:18:30;99538.41;;;14.57
28803;BMP280;15949;55.656;37.422;2023-04-24T06:23:36;99542.09;;;14.82
28803;BMP280;15949;55.656;37.422;2023-04-24T06:28:41;99546.13;;;15.06
28803;BMP280;15949;55.656;37.422;2023-04-24T06:33:48;99546.25;;;15.20
28803;BMP280;15949;55.656;37.422;2023-04-24T06:38:54;99542.81;;;15.53
28803;BMP280;15949;55.656;37.422;2023-04-24T06:44:00;99544.56;;;15.82
28803;BMP280;15949;55.656;37.422;2023-04-24T06:49:05;99551.22;;;16.23
28803;BMP280;15949;55.656;37.422;2023-04-24T06:54:11;99543.53;;;16.66
28803;BMP280;15949;55.656;37.422;2023-04-24T06:59:16;99551.53;;;17.08
28803;BMP280;15949;55.656;37.422;2023-04-24T07:04:22;99549.31;;;17.31
28803;BMP280;15949;55.656;37.422;2023-04-24T07:09:27;99544.41;;;17.47
28803;BMP280;15949;55.656;37.422;2023-04-24T07:14:33;99549.69;;;17.61
28803;BMP280;15949;55.656;37.422;2023-04-24T07:19:39;99551.94;;;17.81
28803;BMP280;15949;55.656;37.422;2023-04-24T07:24:44;99546.59;;;18.09
28803;BMP280;15949;55.656;37.422;2023-04-24T07:29:50;99546.59;;;18.16
28803;BMP280;15949;55.656;37.422;2023-04-24T07:34:56;99543.88;;;18.44
28803;BMP280;15949;55.656;37.422;2023-04-24T07:40:02;99540.34;;;18.72
28803;BMP280;15949;55.656;37.422;2023-04-24T07:45:09;99535.81;;;18.69
28803;BMP280;15949;55.656;37.422;2023-04-24T07:50:14;99544.41;;;18.83
28803;BMP280;15949;55.656;37.422;2023-04-24T07:55:20;99537.84;;;19.05
28803;BMP280;15949;55.656;37.422;2023-04-24T08:00:26;99542.59;;;18.73
28803;BMP280;15949;55.656;37.422;2023-04-24T08:05:31;99534.19;;;18.89
28803;BMP280;15949;55.656;37.422;2023-04-24T08:10:37;99532.63;;;18.95
28803;BMP280;15949;55.656;37.422;2023-04-24T08:15:43;99533.66;;;19.56
28803;BMP280;15949;55.656;37.422;2023-04-24T08:20:48;99531.00;;;19.96
28803;BMP280;15949;55.656;37.422;2023-04-24T08:25:54;99515.63;;;19.47
28803;BMP280;15949;55.656;37.422;2023-04-24T08:30:59;99513.75;;;20.15
28803;BMP280;15949;55.656;37.422;2023-04-24T08:36:05;99518.91;;;20.56
28803;BMP280;15949;55.656;37.422;2023-04-24T08:41:11;99509.75;;;20.57
28803;BMP280;15949;55.656;37.422;2023-04-24T08:46:18;99500.47;;;20.72
28803;BMP280;15949;55.656;37.422;2023-04-24T08:51:26;99506.56;;;20.95
28803;BMP280;15949;55.656;37.422;2023-04-24T08:56:33;99503.69;;;20.83
28803;BMP280;15949;55.656;37.422;2023-04-24T09:01:39;99490.06;;;21.07
28803;BMP280;15949;55.656;37.422;2023-04-24T09:06:45;99493.97;;;21.23
28803;BMP280;15949;55.656;37.422;2023-04-24T09:11:52;99481.91;;;21.80
28803;BMP280;15949;55.656;37.422;2023-04-24T09:17:00;99475.94;;;21.92
28803;BMP280;15949;55.656;37.422;2023-04-24T09:22:07;99478.53;;;21.37
28803;BMP280;15949;55.656;37.422;2023-04-24T09:27:13;99476.13;;;20.54
28803;BMP280;15949;55.656;37.422;2023-04-24T09:32:21;99475.81;;;20.75
28803;BMP280;15949;55.656;37.422;2023-04-24T09:37:28;99462.78;;;21.07
28803;BMP280;15949;55.656;37.422;2023-04-24T09:42:34;99467.34;;;20.83
28803;BMP280;15949;55.656;37.422;2023-04-24T09:47:41;99461.34;;;21.26
28803;BMP280;15949;55.656;37.422;2023-04-24T09:52:56;99454.75;;;21.11
28803;BMP280;15949;55.656;37.422;2023-04-24T09:58:02;99459.63;;;20.46
28803;BMP280;15949;55.656;37.422;2023-04-24T10:03:10;99453.16;;;20.47
28803;BMP280;15949;55.656;37.422;2023-04-24T10:08:16;99446.84;;;21.30
28803;BMP280;15949;55.656;37.422;2023-04-24T10:13:22;99446.59;;;22.00
28803;BMP280;15949;55.656;37.422;2023-04-24T10:18:28;99434.50;;;21.63
28803;BMP280;15949;55.656;37.422;2023-04-24T10:23:34;99442.38;;;20.84
28803;BMP280;15949;55.656;37.422;2023-04-24T10:28:41;99443.31;;;20.21
28803;BMP280;15949;55.656;37.422;2023-04-24T10:33:48;99423.44;;;20.36
28803;BMP280;15949;55.656;37.422;2023-04-24T10:38:55;99433.59;;;20.41
28803;BMP280;15949;55.656;37.422;2023-04-24T10:44:10;99423.22;;;21.75
28803;BMP280;15949;55.656;37.422;2023-04-24T10:49:15;99423.94;;;22.59
28803;BMP280;15949;55.656;37.422;2023-04-24T10:54:26;99421.53;;;22.94
28803;BMP280;15949;55.656;37.422;2023-04-24T10:59:35;99421.66;;;23.19
28803;BMP280;15949;55.656;37.422;2023-04-24T11:04:42;99408.75;;;22.60
28803;BMP280;15949;55.656;37.422;2023-04-24T11:09:58;99415.47;;;21.64
28803;BMP280;15949;55.656;37.422;2023-04-24T11:15:10;99403.81;;;21.62
28803;BMP280;15949;55.656;37.422;2023-04-24T11:20:17;99396.72;;;21.91
28803;BMP280;15949;55.656;37.422;2023-04-24T11:25:23;99392.88;;;22.72
28803;BMP280;15949;55.656;37.422;2023-04-24T11:30:31;99391.88;;;23.24
28803;BMP280;15949;55.656;37.422;2023-04-24T11:35:40;99386.91;;;23.63
28803;BMP280;15949;55.656;37.422;2023-04-24T11:40:45;99380.56;;;22.78
28803;BMP280;15949;55.656;37.422;2023-04-24T11:45:54;99372.63;;;22.62
28803;BMP280;15949;55.656;37.422;2023-04-24T11:51:01;99363.31;;;23.12
28803;BMP280;15949;55.656;37.422;2023-04-24T11:56:08;99360.81;;;23.46
28803;BMP280;15949;55.656;37.422;2023-04-24T12:01:14;99351.41;;;24.04
28803;BMP280;15949;55.656;37.422;2023-04-24T12:06:20;99352.41;;;24.32
28803;BMP280;15949;55.656;37.422;2023-04-24T12:11:26;99349.69;;;24.66
28803;BMP280;15949;55.656;37.422;2023-04-24T12:16:32;99343.56;;;24.78
28803;BMP280;15949;55.656;37.422;2023-04-24T12:21:38;99355.28;;;25.11
28803;BMP280;15949;55.656;37.422;2023-04-24T12:26:44;99341.44;;;25.04
28803;BMP280;15949;55.656;37.422;2023-04-24T12:31:50;99341.31;;;24.76
28803;BMP280;15949;55.656;37.422;2023-04-24T12:36:56;99331.41;;;24.55
28803;BMP280;15949;55.656;37.422;2023-04-24T12:42:02;99328.47;;;22.81
28803;BMP280;15949;55.656;37.422;2023-04-24T12:47:08;99331.84;;;22.69
28803;BMP280;15949;55.656;37.422;2023-04-24T12:52:14;99320.78;;;23.12
28803;BMP280;15949;55.656;37.422;2023-04-24T12:57:21;99320.69;;;22.45
28803;BMP280;15949;55.656;37.422;2023-04-24T13:02:28;99317.25;;;21.68
28803;BMP280;15949;55.656;37.422;2023-04-24T13:07:36;99310.22;;;21.93
28803;BMP280;15949;55.656;37.422;2023-04-24T13:12:41;99300.09;;;22.91
28803;BMP280;15949;55.656;37.422;2023-04-24T13:17:50;99310.78;;;23.66
28803;BMP280;15949;55.656;37.422;2023-04-24T13:22:56;99311.34;;;24.08
28803;BMP280;15949;55.656;37.422;2023-04-24T13:28:01;99299.56;;;23.83
28803;BMP280;15949;55.656;37.422;2023-04-24T13:33:07;99292.94;;;23.88
28803;BMP280;15949;55.656;37.422;2023-04-24T13:38:12;99293.63;;;23.04
28803;BMP280;15949;55.656;37.422;2023-04-24T13:43:18;99286.47;;;22.03
28803;BMP280;15949;55.656;37.422;2023-04-24T13:48:24;99281.81;;;21.74
28803;BMP280;15949;55.656;37.422;2023-04-24T13:53:29;99278.78;;;21.76
28803;BMP280;15949;55.656;37.422;2023-04-24T13:58:35;99274.31;;;22.34
28803;BMP280;15949;55.656;37.422;2023-04-24T14:03:43;99267.31;;;22.68
28803;BMP280;15949;55.656;37.422;2023-04-24T14:08:50;99255.06;;;22.71
28803;BMP280;15949;55.656;37.422;2023-04-24T14:13:55;99250.34;;;22.91
28803;BMP280;15949;55.656;37.422;2023-04-24T14:19:01;99245.66;;;22.82
28803;BMP280;15949;55.656;37.422;2023-04-24T14:24:08;99248.84;;;23.03
28803;BMP280;15949;55.656;37.422;2023-04-24T14:29:13;99251.50;;;22.90
28803;BMP280;15949;55.656;37.422;2023-04-24T14:34:19;99256.94;;;22.45
28803;BMP280;15949;55.656;37.422;2023-04-24T14:39:25;99244.56;;;22.10
28803;BMP280;15949;55.656;37.422;2023-04-24T14:44:31;99243.63;;;21.72
28803;BMP280;15949;55.656;37.422;2023-04-24T14:49:37;99239.34;;;21.42
28803;BMP280;15949;55.656;37.422;2023-04-24T14:54:43;99242.47;;;21.21
28803;BMP280;15949;55.656;37.422;2023-04-24T14:59:49;99235.28;;;21.22
28803;BMP280;15949;55.656;37.422;2023-04-24T15:04:54;99231.69;;;21.12
28803;BMP280;15949;55.656;37.422;2023-04-24T15:10:00;99243.84;;;20.74
28803;BMP280;15949;55.656;37.422;2023-04-24T15:15:06;99238.28;;;20.45
28803;BMP280;15949;55.656;37.422;2023-04-24T15:20:13;99229.34;;;20.16
28803;BMP280;15949;55.656;37.422;2023-04-24T15:25:18;99231.34;;;20.32
28803;BMP280;15949;55.656;37.422;2023-04-24T15:30:24;99237.78;;;20.31
28803;BMP280;15949;55.656;37.422;2023-04-24T15:35:30;99234.75;;;20.09
28803;BMP280;15949;55.656;37.422;2023-04-24T15:40:35;99233.53;;;19.67
28803;BMP280;15949;55.656;37.422;2023-04-24T15:45:41;99225.34;;;19.31
28803;BMP280;15949;55.656;37.422;2023-04-24T15:50:46;99230.69;;;18.98
28803;BMP280;15949;55.656;37.422;2023-04-24T15:55:53;99230.94;;;18.73
28803;BMP280;15949;55.656;37.422;2023-04-24T16:00:59;99239.59;;;18.40
28803;BMP280;15949;55.656;37.422;2023-04-24T16:06:05;99244.69;;;18.10
28803;BMP280;15949;55.656;37.422;2023-04-24T16:11:10;99242.69;;;17.76
28803;BMP280;15949;55.656;37.422;2023-04-24T16:16:16;99234.13;;;17.51
28803;BMP280;15949;55.656;37.422;2023-04-24T16:21:22;99247.09;;;17.28
28803;BMP280;15949;55.656;37.422;2023-04-24T16:26:27;99238.09;;;17.05
28803;BMP280;15949;55.656;37.422;2023-04-24T16:31:33;99248.69;;;16.87
28803;BMP280;15949;55.656;37.422;2023-04-24T16:36:38;99239.31;;;16.65
28803;BMP280;15949;55.656;37.422;2023-04-24T16:41:44;99243.47;;;16.45
28803;BMP280;15949;55.656;37.422;2023-04-24T16:46:50;99250.97;;;16.21
28803;BMP280;15949;55.656;37.422;2023-04-24T16:51:56;99250.94;;;16.00
28803;BMP280;15949;55.656;37.422;2023-04-24T16:57:03;99247.91;;;15.81
28803;BMP280;15949;55.656;37.422;2023-04-24T17:02:08;99246.38;;;15.69
28803;BMP280;15949;55.656;37.422;2023-04-24T17:07:14;99260.22;;;15.59
28803;BMP280;15949;55.656;37.422;2023-04-24T17:12:21;99263.56;;;15.49
28803;BMP280;15949;55.656;37.422;2023-04-24T17:17:27;99268.00;;;15.38
28803;BMP280;15949;55.656;37.422;2023-04-24T17:22:32;99284.44;;;15.28
28803;BMP280;15949;55.656;37.422;2023-04-24T17:27:38;99281.03;;;15.17
28803;BMP280;15949;55.656;37.422;2023-04-24T17:32:44;99282.91;;;15.13
28803;BMP280;15949;55.656;37.422;2023-04-24T17:37:50;99283.56;;;15.06
28803;BMP280;15949;55.656;37.422;2023-04-24T17:42:55;99283.53;;;14.99
28803;BMP280;15949;55.656;37.422;2023-04-24T17:48:01;99290.97;;;14.94
28803;BMP280;15949;55.656;37.422;2023-04-24T17:53:07;99290.97;;;14.94
28803;BMP280;15949;55.656;37.422;2023-04-24T17:58:13;99297.75;;;14.91
28803;BMP280;15949;55.656;37.422;2023-04-24T18:03:18;99302.16;;;14.83
28803;BMP280;15949;55.656;37.422;2023-04-24T18:08:24;99299.06;;;14.74
28803;BMP280;15949;55.656;37.422;2023-04-24T18:13:30;99305.06;;;14.71
28803;BMP280;15949;55.656;37.422;2023-04-24T18:18:35;99299.03;;;14.64
28803;BMP280;15949;55.656;37.422;2023-04-24T18:23:41;99301.94;;;14.55
28803;BMP280;15949;55.656;37.422;2023-04-24T18:28:47;99298.81;;;14.43
28803;BMP280;15949;55.656;37.422;2023-04-24T18:33:52;99295.31;;;14.28
28803;BMP280;15949;55.656;37.422;2023-04-24T18:38:59;99302.28;;;14.17
28803;BMP280;15949;55.656;37.422;2023-04-24T18:44:05;99299.22;;;14.08
28803;BMP280;15949;55.656;37.422;2023-04-24T18:49:10;99296.06;;;13.95
28803;BMP280;15949;55.656;37.422;2023-04-24T18:54:16;99298.06;;;13.76
28803;BMP280;15949;55.656;37.422;2023-04-24T18:59:21;99306.28;;;13.74
28803;BMP280;15949;55.656;37.422;2023-04-24T19:04:28;99308.53;;;13.76
28803;BMP280;15949;55.656;37.422;2023-04-24T19:09:33;99304.69;;;13.66
28803;BMP280;15949;55.656;37.422;2023-04-24T19:14:39;99307.66;;;13.65
28803;BMP280;15949;55.656;37.422;2023-04-24T19:19:45;99307.97;;;13.60
28803;BMP280;15949;55.656;37.422;2023-04-24T19:24:51;99303.75;;;13.52
28803;BMP280;15949;55.656;37.422;2023-04-24T19:29:58;99313.72;;;13.42
28803;BMP280;15949;55.656;37.422;2023-04-24T19:35:04;99296.81;;;13.36
28803;BMP280;15949;55.656;37.422;2023-04-24T19:40:10;99311.75;;;13.36
28803;BMP280;15949;55.656;37.422;2023-04-24T19:45:17;99311.09;;;13.42
28803;BMP280;15949;55.656;37.422;2023-04-24T19:50:23;99307.78;;;13.45
28803;BMP280;15949;55.656;37.422;2023-04-24T19:55:29;99314.13;;;13.44
28803;BMP280;15949;55.656;37.422;2023-04-24T20:00:34;99311.03;;;13.39
28803;BMP280;15949;55.656;37.422;2023-04-24T20:05:40;99306.84;;;13.34
28803;BMP280;15949;55.656;37.422;2023-04-24T20:10:45;99312.28;;;13.22
28803;BMP280;15949;55.656;37.422;2023-04-24T20:15:51;99306.22;;;13.15
28803;BMP280;15949;55.656;37.422;2023-04-24T20:20:56;99298.84;;;12.98
28803;BMP280;15949;55.656;37.422;2023-04-24T20:26:03;99300.53;;;12.87
28803;BMP280;15949;55.656;37.422;2023-04-24T20:31:09;99308.34;;;12.64
28803;BMP280;15949;55.656;37.422;2023-04-24T20:36:15;99310.16;;;12.41
28803;BMP280;15949;55.656;37.422;2023-04-24T20:41:20;99315.53;;;12.29
28803;BMP280;15949;55.656;37.422;2023-04-24T20:46:26;99316.56;;;12.24
28803;BMP280;15949;55.656;37.422;2023-04-24T20:51:31;99314.59;;;12.18
28803;BMP280;15949;55.656;37.422;2023-04-24T20:56:37;99317.41;;;12.09
28803;BMP280;15949;55.656;37.422;2023-04-24T21:01:43;99327.75;;;12.05
28803;BMP280;15949;55.656;37.422;2023-04-24T21:06:49;99313.63;;;12.06
28803;BMP280;15949;55.656;37.422;2023-04-24T21:11:54;99312.31;;;11.97
28803;BMP280;15949;55.656;37.422;2023-04-24T21:17:01;99316.13;;;11.84
28803;BMP280;15949;55.656;37.422;2023-04-24T21:22:07;99308.06;;;11.73
28803;BMP280;15949;55.656;37.422;2023-04-24T21:27:13;99310.53;;;11.66
28803;BMP280;15949;55.656;37.422;2023-04-24T21:32:18;99308.34;;;11.53
28803;BMP280;15949;55.656;37.422;2023-04-24T21:37:27;99321.44;;;11.37
28803;BMP280;15949;55.656;37.422;2023-04-24T21:42:33;99319.09;;;11.32
28803;BMP280;15949;55.656;37.422;2023-04-24T21:47:39;99316.88;;;11.34
28803;BMP280;15949;55.656;37.422;2023-04-24T21:52:44;99313.13;;;11.31
28803;BMP280;15949;55.656;37.422;2023-04-24T21:57:50;99306.94;;;11.24
28803;BMP280;15949;55.656;37.422;2023-04-24T22:02:56;99306.72;;;11.13
28803;BMP280;15949;55.656;37.422;2023-04-24T22:08:01;99317.63;;;11.03
28803;BMP280;15949;55.656;37.422;2023-04-24T22:13:07;99315.41;;;10.89
28803;BMP280;15949;55.656;37.422;2023-04-24T22:18:13;99311.81;;;10.78
28803;BMP280;15949;55.656;37.422;2023-04-24T22:23:18;99309.69;;;10.68
28803;BMP280;15949;55.656;37.422;2023-04-24T22:28:24;99305.56;;;10.67
28803;BMP280;15949;55.656;37.422;2023-04-24T22:33:30;99304.38;;;10.65
28803;BMP280;15949;55.656;37.422;2023-04-24T22:38:35;99302.09;;;10.63
28803;BMP280;15949;55.656;37.422;2023-04-24T22:43:41;99301.16;;;10.56
28803;BMP280;15949;55.656;37.422;2023-04-24T22:48:46;99289.53;;;10.53
28803;BMP280;15949;55.656;37.422;2023-04-24T22:53:53;99294.09;;;10.56
28803;BMP280;15949;55.656;37.422;2023-04-24T22:58:59;99293.44;;;10.59
28803;BMP280;15949;55.656;37.422;2023-04-24T23:04:04;99299.06;;;10.61
28803;BMP280;15949;55.656;37.422;2023-04-24T23:09:10;99297.81;;;10.55
28803;BMP280;15949;55.656;37.422;2023-04-24T23:14:16;99295.22;;;10.43
28803;BMP280;15949;55.656;37.422;2023-04-24T23:19:22;99296.66;;;10.41
28803;BMP280;15949;55.656;37.422;2023-04-24T23:24:28;99301.78;;;10.37
28803;BMP280;15949;55.656;37.422;2023-04-24T23:29:33;99290.50;;;10.33
28803;BMP280;15949;55.656;37.422;2023-04-24T23:34:39;99299.31;;;10.29
28803;BMP280;15949;55.656;37.422;2023-04-24T23:39:46;99287.59;;;10.22
28803;BMP280;15949;55.656;37.422;2023-04-24T23:44:51;99290.34;;;10.14
28803;BMP280;15949;55.656;37.422;2023-04-24T23:49:57;99280.91;;;10.09
28803;BMP280;15949;55.656;37.422;2023-04-24T23:55:02;99285.25;;;10.05
